www.cux-wetter.de
Wetterdaten: Samstag, 04.12.2010
Datum Zeit Temp. A. Feuchte A. Luftdruck Regen Wind Richtung Richtung Sonnenschein Solar Taupunkt Windchill Windben
04.12.2010 00:05 -3,1 C 84 % 1008,5 hPa 0,0 l/m 23,0 km/h (4 Bft) W-SW 245 0 min 0 W/m -5,4 C -15,1 C 23,0 km/h (4 Bft)
04.12.2010 00:09 -3,3 C 84 % 1008,5 hPa 0,0 l/m 20,6 km/h (4 Bft) W-SW 250 0 min 0 W/m -5,6 C -14,2 C 20,6 km/h (4 Bft)
04.12.2010 00:14 -3,4 C 84 % 1008,5 hPa 0,0 l/m 16,5 km/h (3 Bft) W-SW 245 0 min 0 W/m -5,7 C -12,1 C 16,5 km/h (3 Bft)
04.12.2010 00:19 -3,4 C 84 % 1008,5 hPa 0,0 l/m 20,5 km/h (4 Bft) W-SW 250 0 min 0 W/m -5,7 C -14,3 C 20,5 km/h (4 Bft)
04.12.2010 00:24 -3,4 C 85 % 1008,5 hPa 0,0 l/m 16,2 km/h (3 Bft) W-SW 245 0 min 0 W/m -5,5 C -11,9 C 16,2 km/h (3 Bft)
04.12.2010 00:30 -3,4 C 85 % 1008,5 hPa 0,0 l/m 21,4 km/h (4 Bft) W-SW 245 0 min 0 W/m -5,5 C -14,7 C 21,4 km/h (4 Bft)
04.12.2010 00:35 -3,4 C 84 % 1008,5 hPa 0,0 l/m 18,8 km/h (3 Bft) W-SW 245 0 min 0 W/m -5,7 C -13,4 C 18,8 km/h (3 Bft)
04.12.2010 00:39 -3,4 C 84 % 1008,5 hPa 0,0 l/m 20,1 km/h (4 Bft) W-SW 240 0 min 0 W/m -5,7 C -14,1 C 20,1 km/h (4 Bft)
04.12.2010 00:44 -3,5 C 84 % 1008,5 hPa 0,0 l/m 16,7 km/h (3 Bft) W 265 0 min 0 W/m -5,8 C -12,3 C 16,7 km/h (3 Bft)
04.12.2010 00:49 -3,6 C 84 % 1008,5 hPa 0,0 l/m 20,6 km/h (4 Bft) W-SW 250 0 min 0 W/m -5,9 C -14,6 C 20,6 km/h (4 Bft)
04.12.2010 00:54 -3,7 C 85 % 1008,5 hPa 0,0 l/m 20,0 km/h (4 Bft) W-SW 250 0 min 0 W/m -5,8 C -14,4 C 20,0 km/h (4 Bft)
04.12.2010 00:59 -3,8 C 85 % 1008,5 hPa 0,0 l/m 29,1 km/h (5 Bft) W-SW 245 0 min 0 W/m -5,9 C -18,4 C 29,1 km/h (5 Bft)
04.12.2010 01:05 -3,8 C 85 % 1008,5 hPa 0,0 l/m 24,5 km/h (4 Bft) W-SW 250 0 min 0 W/m -5,9 C -16,7 C 24,5 km/h (4 Bft)
04.12.2010 01:09 -3,8 C 85 % 1008,5 hPa 0,0 l/m 22,3 km/h (4 Bft) W-SW 245 0 min 0 W/m -5,9 C -15,7 C 22,3 km/h (4 Bft)
04.12.2010 01:14 -3,8 C 85 % 1008,5 hPa 0,0 l/m 24,1 km/h (4 Bft) W-SW 250 0 min 0 W/m -5,9 C -16,5 C 24,1 km/h (4 Bft)
04.12.2010 01:19 -3,9 C 85 % 1008,5 hPa 0,0 l/m 24,5 km/h (4 Bft) W-SW 250 0 min 0 W/m -6,0 C -16,8 C 24,5 km/h (4 Bft)
04.12.2010 01:24 -4,0 C 85 % 1008,5 hPa 0,0 l/m 21,1 km/h (4 Bft) W-SW 245 0 min 0 W/m -6,1 C -15,4 C 21,1 km/h (4 Bft)
04.12.2010 01:29 -4,0 C 85 % 1008,5 hPa 0,0 l/m 22,8 km/h (4 Bft) W-SW 250 0 min 0 W/m -6,1 C -16,2 C 22,8 km/h (4 Bft)
04.12.2010 01:34 -4,0 C 85 % 1008,5 hPa 0,0 l/m 20,1 km/h (4 Bft) W-SW 240 0 min 0 W/m -6,1 C -14,9 C 20,1 km/h (4 Bft)
04.12.2010 01:39 -4,0 C 85 % 1008,5 hPa 0,0 l/m 19,1 km/h (3 Bft) W-SW 240 0 min 0 W/m -6,1 C -14,3 C 19,1 km/h (3 Bft)
04.12.2010 01:45 -4,0 C 85 % 1008,5 hPa 0,0 l/m 20,0 km/h (4 Bft) W-SW 245 0 min 0 W/m -6,1 C -14,8 C 20,0 km/h (4 Bft)
04.12.2010 01:50 -3,9 C 86 % 1008,5 hPa 0,0 l/m 21,3 km/h (4 Bft) W-SW 240 0 min 0 W/m -5,9 C -15,3 C 21,3 km/h (4 Bft)
04.12.2010 01:54 -3,8 C 86 % 1008,5 hPa 0,0 l/m 22,6 km/h (4 Bft) W-SW 250 0 min 0 W/m -5,8 C -15,8 C 22,6 km/h (4 Bft)
04.12.2010 01:59 -3,8 C 86 % 1008,5 hPa 0,0 l/m 20,8 km/h (4 Bft) W-SW 250 0 min 0 W/m -5,8 C -14,9 C 20,8 km/h (4 Bft)
04.12.2010 02:04 -3,7 C 86 % 1008,5 hPa 0,0 l/m 18,4 km/h (3 Bft) W-SW 250 0 min 0 W/m -5,7 C -13,5 C 18,4 km/h (3 Bft)
04.12.2010 02:09 -3,6 C 86 % 1009,5 hPa 0,0 l/m 19,7 km/h (3 Bft) W-SW 250 0 min 0 W/m -5,6 C -14,1 C 19,7 km/h (3 Bft)
04.12.2010 02:14 -3,6 C 86 % 1009,5 hPa 0,0 l/m 16,9 km/h (3 Bft) W-SW 245 0 min 0 W/m -5,6 C -12,6 C 16,9 km/h (3 Bft)
04.12.2010 02:20 -3,5 C 86 % 1008,5 hPa 0,0 l/m 20,4 km/h (4 Bft) W-SW 250 0 min 0 W/m -5,5 C -14,4 C 20,4 km/h (4 Bft)
04.12.2010 02:24 -3,5 C 86 % 1008,5 hPa 0,0 l/m 17,6 km/h (3 Bft) W-SW 240 0 min 0 W/m -5,5 C -12,8 C 17,6 km/h (3 Bft)
04.12.2010 02:29 -3,5 C 87 % 1009,5 hPa 0,0 l/m 23,6 km/h (4 Bft) W-SW 250 0 min 0 W/m -5,3 C -15,9 C 23,6 km/h (4 Bft)
04.12.2010 02:34 -3,5 C 87 % 1009,5 hPa 0,0 l/m 17,2 km/h (3 Bft) W-SW 245 0 min 0 W/m -5,3 C -12,6 C 17,2 km/h (3 Bft)
04.12.2010 02:39 -3,6 C 87 % 1009,5 hPa 0,0 l/m 27,0 km/h (5 Bft) W-SW 255 0 min 0 W/m -5,4 C -17,4 C 27,0 km/h (5 Bft)
04.12.2010 02:44 -3,6 C 88 % 1009,5 hPa 0,0 l/m 16,8 km/h (3 Bft) W-SW 240 0 min 0 W/m -5,3 C -12,5 C 16,8 km/h (3 Bft)
04.12.2010 02:49 -3,6 C 88 % 1009,5 hPa 0,0 l/m 16,3 km/h (3 Bft) W-SW 245 0 min 0 W/m -5,3 C -12,2 C 16,3 km/h (3 Bft)
04.12.2010 02:54 -3,6 C 88 % 1009,5 hPa 0,0 l/m 22,4 km/h (4 Bft) W-SW 250 0 min 0 W/m -5,3 C -15,5 C 22,4 km/h (4 Bft)
04.12.2010 02:59 -3,6 C 89 % 1009,5 hPa 0,0 l/m 25,0 km/h (4 Bft) W-SW 250 0 min 0 W/m -5,1 C -16,6 C 25,0 km/h (4 Bft)
04.12.2010 03:04 -3,6 C 89 % 1009,5 hPa 0,0 l/m 21,6 km/h (4 Bft) W-SW 240 0 min 0 W/m -5,1 C -15,1 C 21,6 km/h (4 Bft)
04.12.2010 03:09 -3,6 C 90 % 1009,5 hPa 0,0 l/m 20,7 km/h (4 Bft) W-SW 255 0 min 0 W/m -5,0 C -14,6 C 20,7 km/h (4 Bft)
04.12.2010 03:14 -3,6 C 90 % 1009,5 hPa 0,0 l/m 23,2 km/h (4 Bft) W-SW 250 0 min 0 W/m -5,0 C -15,8 C 23,2 km/h (4 Bft)
04.12.2010 03:19 -3,6 C 90 % 1009,5 hPa 0,0 l/m 18,2 km/h (3 Bft) W-SW 250 0 min 0 W/m -5,0 C -13,3 C 18,2 km/h (3 Bft)
04.12.2010 03:24 -3,5 C 90 % 1009,5 hPa 0,0 l/m 20,0 km/h (4 Bft) W-SW 255 0 min 0 W/m -4,9 C -14,2 C 20,0 km/h (4 Bft)
04.12.2010 03:29 -3,5 C 90 % 1009,5 hPa 0,0 l/m 24,5 km/h (4 Bft) W-SW 255 0 min 0 W/m -4,9 C -16,3 C 24,5 km/h (4 Bft)
04.12.2010 03:35 -3,4 C 90 % 1009,5 hPa 0,0 l/m 29,7 km/h (5 Bft) W-SW 255 0 min 0 W/m -4,8 C -18,1 C 29,7 km/h (5 Bft)
04.12.2010 03:40 -3,4 C 90 % 1009,5 hPa 0,0 l/m 27,6 km/h (5 Bft) W-SW 250 0 min 0 W/m -4,8 C -17,3 C 27,6 km/h (5 Bft)
04.12.2010 03:44 -3,4 C 90 % 1009,5 hPa 0,0 l/m 26,3 km/h (4 Bft) W-SW 245 0 min 0 W/m -4,8 C -16,8 C 26,3 km/h (4 Bft)
04.12.2010 03:49 -3,4 C 91 % 1009,5 hPa 0,0 l/m 22,6 km/h (4 Bft) W-SW 250 0 min 0 W/m -4,7 C -15,3 C 22,6 km/h (4 Bft)
04.12.2010 03:54 -3,4 C 91 % 1009,5 hPa 0,0 l/m 26,2 km/h (4 Bft) W-SW 245 0 min 0 W/m -4,7 C -16,8 C 26,2 km/h (4 Bft)
04.12.2010 03:59 -3,3 C 91 % 1009,5 hPa 0,0 l/m 22,5 km/h (4 Bft) W-SW 250 0 min 0 W/m -4,6 C -15,1 C 22,5 km/h (4 Bft)
04.12.2010 04:05 -3,2 C 91 % 1009,5 hPa 0,0 l/m 27,6 km/h (5 Bft) W-SW 255 0 min 0 W/m -4,5 C -17,1 C 27,6 km/h (5 Bft)
04.12.2010 04:10 -3,2 C 92 % 1009,5 hPa 0,0 l/m 28,9 km/h (5 Bft) W-SW 250 0 min 0 W/m -4,3 C -17,5 C 28,9 km/h (5 Bft)
04.12.2010 04:14 -3,1 C 91 % 1009,5 hPa 0,0 l/m 28,9 km/h (5 Bft) W-SW 250 0 min 0 W/m -4,4 C -17,4 C 28,9 km/h (5 Bft)
04.12.2010 04:19 -3,1 C 92 % 1009,5 hPa 0,0 l/m 29,1 km/h (5 Bft) W-SW 255 0 min 0 W/m -4,2 C -17,5 C 29,1 km/h (5 Bft)
04.12.2010 04:24 -3,0 C 92 % 1009,5 hPa 0,0 l/m 24,2 km/h (4 Bft) W-SW 250 0 min 0 W/m -4,1 C -15,5 C 24,2 km/h (4 Bft)
04.12.2010 04:29 -3,0 C 92 % 1009,5 hPa 0,0 l/m 24,1 km/h (4 Bft) W-SW 255 0 min 0 W/m -4,1 C -15,4 C 24,1 km/h (4 Bft)
04.12.2010 04:34 -3,0 C 92 % 1009,5 hPa 0,0 l/m 25,4 km/h (4 Bft) W-SW 245 0 min 0 W/m -4,1 C -15,9 C 25,4 km/h (4 Bft)
04.12.2010 04:39 -3,0 C 92 % 1009,5 hPa 0,0 l/m 23,1 km/h (4 Bft) W-SW 250 0 min 0 W/m -4,1 C -15,0 C 23,1 km/h (4 Bft)
04.12.2010 04:44 -3,0 C 92 % 1009,5 hPa 0,0 l/m 22,2 km/h (4 Bft) W-SW 255 0 min 0 W/m -4,1 C -14,6 C 22,2 km/h (4 Bft)
04.12.2010 04:50 -2,9 C 92 % 1009,5 hPa 0,0 l/m 22,3 km/h (4 Bft) W-SW 255 0 min 0 W/m -4,0 C -14,5 C 22,3 km/h (4 Bft)
04.12.2010 04:55 -2,8 C 92 % 1009,5 hPa 0,0 l/m 26,2 km/h (4 Bft) W-SW 250 0 min 0 W/m -3,9 C -16,0 C 26,2 km/h (4 Bft)
04.12.2010 04:59 -2,8 C 92 % 1009,5 hPa 0,0 l/m 25,8 km/h (4 Bft) W-SW 250 0 min 0 W/m -3,9 C -15,8 C 25,8 km/h (4 Bft)
04.12.2010 05:04 -2,6 C 92 % 1009,5 hPa 0,0 l/m 25,4 km/h (4 Bft) W-SW 250 0 min 0 W/m -3,7 C -15,4 C 25,4 km/h (4 Bft)
04.12.2010 05:09 -2,6 C 92 % 1009,5 hPa 0,0 l/m 23,4 km/h (4 Bft) W-SW 255 0 min 0 W/m -3,7 C -14,6 C 23,4 km/h (4 Bft)
04.12.2010 05:14 -2,6 C 92 % 1009,5 hPa 0,0 l/m 23,4 km/h (4 Bft) W-SW 250 0 min 0 W/m -3,7 C -14,6 C 23,4 km/h (4 Bft)
04.12.2010 05:20 -2,6 C 92 % 1009,5 hPa 0,0 l/m 22,6 km/h (4 Bft) W-SW 250 0 min 0 W/m -3,7 C -14,2 C 22,6 km/h (4 Bft)
04.12.2010 05:25 -2,5 C 92 % 1009,5 hPa 0,0 l/m 22,0 km/h (4 Bft) W-SW 250 0 min 0 W/m -3,6 C -13,8 C 22,0 km/h (4 Bft)
04.12.2010 05:29 -2,4 C 92 % 1009,5 hPa 0,0 l/m 28,0 km/h (5 Bft) W-SW 255 0 min 0 W/m -3,5 C -16,1 C 28,0 km/h (5 Bft)
04.12.2010 05:34 -2,4 C 92 % 1009,5 hPa 0,0 l/m 21,8 km/h (4 Bft) W-SW 250 0 min 0 W/m -3,5 C -13,6 C 21,8 km/h (4 Bft)
04.12.2010 05:39 -2,3 C 92 % 1009,5 hPa 0,0 l/m 26,8 km/h (4 Bft) W-SW 255 0 min 0 W/m -3,4 C -15,5 C 26,8 km/h (4 Bft)
04.12.2010 05:44 -2,2 C 92 % 1009,5 hPa 0,0 l/m 20,0 km/h (4 Bft) W-SW 255 0 min 0 W/m -3,3 C -12,5 C 20,0 km/h (4 Bft)
04.12.2010 05:49 -2,2 C 92 % 1009,5 hPa 0,0 l/m 28,1 km/h (5 Bft) W-SW 255 0 min 0 W/m -3,3 C -15,9 C 28,1 km/h (5 Bft)
04.12.2010 05:54 -2,2 C 93 % 1009,5 hPa 0,0 l/m 29,1 km/h (5 Bft) W-SW 250 0 min 0 W/m -3,2 C -16,2 C 29,1 km/h (5 Bft)
04.12.2010 06:00 -2,1 C 93 % 1009,5 hPa 0,0 l/m 29,4 km/h (5 Bft) W-SW 245 0 min 0 W/m -3,1 C -16,2 C 29,4 km/h (5 Bft)
04.12.2010 06:04 -2,1 C 93 % 1009,5 hPa 0,0 l/m 28,5 km/h (5 Bft) W-SW 240 0 min 0 W/m -3,1 C -15,9 C 28,5 km/h (5 Bft)
04.12.2010 06:09 -2,1 C 92 % 1009,5 hPa 0,0 l/m 26,8 km/h (4 Bft) W-SW 245 0 min 0 W/m -3,2 C -15,3 C 26,8 km/h (4 Bft)
04.12.2010 06:14 -2,1 C 92 % 1009,5 hPa 0,0 l/m 34,9 km/h (5 Bft) W-SW 255 0 min 0 W/m -3,2 C -17,8 C 34,9 km/h (5 Bft)
04.12.2010 06:19 -2,0 C 92 % 1009,5 hPa 0,0 l/m 26,8 km/h (4 Bft) W-SW 250 0 min 0 W/m -3,1 C -15,1 C 26,8 km/h (4 Bft)
04.12.2010 06:24 -2,0 C 92 % 1009,5 hPa 0,0 l/m 27,6 km/h (5 Bft) W-SW 250 0 min 0 W/m -3,1 C -15,4 C 27,6 km/h (5 Bft)
04.12.2010 06:30 -2,0 C 92 % 1009,5 hPa 0,0 l/m 31,4 km/h (5 Bft) W-SW 250 0 min 0 W/m -3,1 C -16,7 C 31,4 km/h (5 Bft)
04.12.2010 06:35 -2,0 C 92 % 1009,5 hPa 0,0 l/m 32,4 km/h (5 Bft) W-SW 245 0 min 0 W/m -3,1 C -17,0 C 32,4 km/h (5 Bft)
04.12.2010 06:39 -2,1 C 92 % 1009,5 hPa 0,0 l/m 29,5 km/h (5 Bft) W-SW 240 0 min 0 W/m -3,2 C -16,2 C 29,5 km/h (5 Bft)
04.12.2010 06:44 -2,2 C 91 % 1009,5 hPa 0,0 l/m 31,2 km/h (5 Bft) W-SW 245 0 min 0 W/m -3,5 C -16,9 C 31,2 km/h (5 Bft)
04.12.2010 06:49 -2,3 C 90 % 1009,5 hPa 0,0 l/m 28,3 km/h (5 Bft) SW 235 0 min 0 W/m -3,7 C -16,1 C 28,3 km/h (5 Bft)
04.12.2010 06:54 -2,4 C 90 % 1009,5 hPa 0,0 l/m 33,1 km/h (5 Bft) W-SW 240 0 min 0 W/m -3,8 C -17,7 C 33,1 km/h (5 Bft)
04.12.2010 06:59 -2,5 C 89 % 1009,5 hPa 0,0 l/m 26,8 km/h (4 Bft) W-SW 240 0 min 0 W/m -4,1 C -15,8 C 26,8 km/h (4 Bft)
04.12.2010 07:04 -2,5 C 89 % 1010,5 hPa 0,0 l/m 27,9 km/h (5 Bft) W-SW 255 0 min 0 W/m -4,1 C -16,2 C 27,9 km/h (5 Bft)
04.12.2010 07:09 -2,5 C 89 % 1010,5 hPa 0,0 l/m 33,2 km/h (5 Bft) W-SW 250 0 min 0 W/m -4,1 C -17,9 C 33,2 km/h (5 Bft)
04.12.2010 07:14 -2,6 C 88 % 1010,5 hPa 0,0 l/m 27,5 km/h (5 Bft) W-SW 250 0 min 0 W/m -4,3 C -16,2 C 27,5 km/h (5 Bft)
04.12.2010 07:19 -2,6 C 88 % 1010,5 hPa 0,0 l/m 29,3 km/h (5 Bft) W-SW 245 0 min 0 W/m -4,3 C -16,8 C 29,3 km/h (5 Bft)
04.12.2010 07:24 -2,6 C 88 % 1009,5 hPa 0,0 l/m 30,2 km/h (5 Bft) W-SW 240 0 min 0 W/m -4,3 C -17,1 C 30,2 km/h (5 Bft)
04.12.2010 07:29 -2,6 C 88 % 1010,5 hPa 0,0 l/m 25,5 km/h (4 Bft) W-SW 245 0 min 0 W/m -4,3 C -15,4 C 25,5 km/h (4 Bft)
04.12.2010 07:35 -2,7 C 88 % 1010,5 hPa 0,0 l/m 27,9 km/h (5 Bft) W-SW 245 0 min 0 W/m -4,4 C -16,5 C 27,9 km/h (5 Bft)
04.12.2010 07:40 -2,7 C 88 % 1010,5 hPa 0,0 l/m 25,1 km/h (4 Bft) W-SW 245 0 min 0 W/m -4,4 C -15,4 C 25,1 km/h (4 Bft)
04.12.2010 07:44 -2,7 C 88 % 1010,5 hPa 0,0 l/m 25,3 km/h (4 Bft) W-SW 245 0 min 0 W/m -4,4 C -15,5 C 25,3 km/h (4 Bft)
04.12.2010 07:49 -2,7 C 88 % 1010,5 hPa 0,0 l/m 26,5 km/h (4 Bft) W-SW 240 0 min 0 W/m -4,4 C -16,0 C 26,5 km/h (4 Bft)
04.12.2010 07:54 -2,7 C 88 % 1010,5 hPa 0,0 l/m 18,6 km/h (3 Bft) W-SW 240 0 min 0 W/m -4,4 C -12,4 C 18,6 km/h (3 Bft)
04.12.2010 07:59 -2,8 C 88 % 1010,5 hPa 0,0 l/m 25,4 km/h (4 Bft) W-SW 240 0 min 0 W/m -4,5 C -15,7 C 25,4 km/h (4 Bft)
04.12.2010 08:05 -2,8 C 88 % 1010,5 hPa 0,0 l/m 23,1 km/h (4 Bft) W-SW 245 0 min 0 W/m -4,5 C -14,7 C 23,1 km/h (4 Bft)
04.12.2010 08:10 -2,9 C 88 % 1010,5 hPa 0,0 l/m 21,6 km/h (4 Bft) W-SW 245 0 min 0 W/m -4,6 C -14,2 C 21,6 km/h (4 Bft)
04.12.2010 08:14 -2,8 C 87 % 1010,5 hPa 0,0 l/m 27,8 km/h (5 Bft) W-SW 245 0 min 0 W/m -4,7 C -16,6 C 27,8 km/h (5 Bft)
04.12.2010 08:19 -2,9 C 87 % 1010,5 hPa 0,0 l/m 26,0 km/h (4 Bft) W-SW 240 0 min 0 W/m -4,8 C -16,0 C 26,0 km/h (4 Bft)
04.12.2010 08:24 -2,9 C 87 % 1010,5 hPa 0,0 l/m 25,4 km/h (4 Bft) W-SW 255 0 min 0 W/m -4,8 C -15,8 C 25,4 km/h (4 Bft)
04.12.2010 08:29 -2,9 C 87 % 1010,5 hPa 0,0 l/m 21,9 km/h (4 Bft) W-SW 240 0 min 0 W/m -4,8 C -14,3 C 21,9 km/h (4 Bft)
04.12.2010 08:34 -3,0 C 87 % 1010,5 hPa 0,0 l/m 21,6 km/h (4 Bft) W-SW 240 0 min 0 W/m -4,9 C -14,3 C 21,6 km/h (4 Bft)
04.12.2010 08:40 -3,0 C 87 % 1010,5 hPa 0,0 l/m 25,7 km/h (4 Bft) W-SW 240 0 min 0 W/m -4,9 C -16,1 C 25,7 km/h (4 Bft)
04.12.2010 08:45 -3,1 C 87 % 1010,5 hPa 0,0 l/m 23,8 km/h (4 Bft) W-SW 245 0 min 0 W/m -4,9 C -15,4 C 23,8 km/h (4 Bft)
04.12.2010 08:49 -3,1 C 87 % 1010,5 hPa 0,0 l/m 24,5 km/h (4 Bft) W-SW 245 0 min 0 W/m -4,9 C -15,7 C 24,5 km/h (4 Bft)
04.12.2010 08:54 -3,0 C 86 % 1010,5 hPa 0,0 l/m 27,3 km/h (5 Bft) W-SW 250 0 min 0 W/m -5,0 C -16,7 C 27,3 km/h (5 Bft)
04.12.2010 08:59 -3,0 C 87 % 1010,5 hPa 0,0 l/m 28,1 km/h (5 Bft) W-SW 245 0 min 0 W/m -4,9 C -17,0 C 28,1 km/h (5 Bft)
04.12.2010 09:04 -3,0 C 86 % 1010,5 hPa 0,0 l/m 30,0 km/h (5 Bft) W-SW 240 0 min 0 W/m -5,0 C -17,6 C 30,0 km/h (5 Bft)
04.12.2010 09:10 -3,0 C 86 % 1010,5 hPa 0,0 l/m 28,0 km/h (5 Bft) W-SW 240 0 min 0 W/m -5,0 C -16,9 C 28,0 km/h (5 Bft)
04.12.2010 09:15 -3,0 C 86 % 1010,5 hPa 0,0 l/m 26,6 km/h (4 Bft) W-SW 240 0 min 0 W/m -5,0 C -16,4 C 26,6 km/h (4 Bft)
04.12.2010 09:19 -3,0 C 85 % 1010,5 hPa 0,0 l/m 26,9 km/h (4 Bft) W-SW 240 0 min 0 W/m -5,2 C -16,5 C 26,9 km/h (4 Bft)
04.12.2010 09:24 -3,0 C 85 % 1010,5 hPa 0,0 l/m 20,1 km/h (4 Bft) W-SW 240 0 min 0 W/m -5,2 C -13,6 C 20,1 km/h (4 Bft)
04.12.2010 09:29 -3,0 C 85 % 1010,5 hPa 0,0 l/m 22,4 km/h (4 Bft) W-SW 245 0 min 0 W/m -5,2 C -14,7 C 22,4 km/h (4 Bft)
04.12.2010 09:34 -3,0 C 85 % 1010,5 hPa 0,0 l/m 19,5 km/h (3 Bft) W-SW 240 0 min 0 W/m -5,2 C -13,2 C 19,5 km/h (3 Bft)
04.12.2010 09:39 -3,0 C 85 % 1010,5 hPa 0,0 l/m 23,4 km/h (4 Bft) W-SW 245 0 min 0 W/m -5,2 C -15,1 C 23,4 km/h (4 Bft)
04.12.2010 09:44 -3,0 C 83 % 1010,5 hPa 0,0 l/m 30,1 km/h (5 Bft) W-SW 240 0 min 0 W/m -5,5 C -17,7 C 30,1 km/h (5 Bft)
04.12.2010 09:50 -2,9 C 83 % 1010,5 hPa 0,0 l/m 20,5 km/h (4 Bft) W-SW 240 0 min 0 W/m -5,4 C -13,6 C 20,5 km/h (4 Bft)
04.12.2010 09:54 -2,9 C 83 % 1010,5 hPa 0,0 l/m 25,8 km/h (4 Bft) SW 230 0 min 0 W/m -5,4 C -16,0 C 25,8 km/h (4 Bft)
04.12.2010 09:59 -2,6 C 84 % 1010,5 hPa 0,0 l/m 23,9 km/h (4 Bft) SW 230 0 min 0 W/m -4,9 C -14,8 C 23,9 km/h (4 Bft)
04.12.2010 10:04 -2,6 C 81 % 1010,5 hPa 0,0 l/m 21,5 km/h (4 Bft) W-SW 240 0 min 0 W/m -5,4 C -13,7 C 21,5 km/h (4 Bft)
04.12.2010 10:09 -2,6 C 81 % 1010,5 hPa 0,0 l/m 26,7 km/h (4 Bft) SW 220 0 min 0 W/m -5,4 C -15,9 C 26,7 km/h (4 Bft)
04.12.2010 10:15 -2,7 C 81 % 1010,5 hPa 0,0 l/m 26,5 km/h (4 Bft) W-SW 240 0 min 0 W/m -5,5 C -16,0 C 26,5 km/h (4 Bft)
04.12.2010 10:20 -2,6 C 81 % 1010,5 hPa 0,0 l/m 23,1 km/h (4 Bft) SW 235 0 min 0 W/m -5,4 C -14,4 C 23,1 km/h (4 Bft)
04.12.2010 10:24 -2,6 C 80 % 1010,5 hPa 0,0 l/m 27,7 km/h (5 Bft) SW 230 0 min 0 W/m -5,6 C -16,3 C 27,7 km/h (5 Bft)
04.12.2010 10:29 -2,6 C 81 % 1010,5 hPa 0,0 l/m 22,9 km/h (4 Bft) W-SW 240 0 min 0 W/m -5,4 C -14,4 C 22,9 km/h (4 Bft)
04.12.2010 10:34 -2,5 C 80 % 1010,5 hPa 0,0 l/m 18,6 km/h (3 Bft) SW 235 0 min 0 W/m -5,5 C -12,1 C 18,6 km/h (3 Bft)
04.12.2010 10:39 -2,5 C 80 % 1010,5 hPa 0,0 l/m 22,7 km/h (4 Bft) SW 230 0 min 0 W/m -5,5 C -14,1 C 22,7 km/h (4 Bft)
04.12.2010 10:44 -2,4 C 80 % 1010,5 hPa 0,0 l/m 22,2 km/h (4 Bft) W-SW 240 0 min 0 W/m -5,4 C -13,8 C 22,2 km/h (4 Bft)
04.12.2010 10:49 -2,2 C 80 % 1010,5 hPa 0,0 l/m 25,3 km/h (4 Bft) W-SW 240 0 min 0 W/m -5,2 C -14,8 C 25,3 km/h (4 Bft)
04.12.2010 10:55 -2,2 C 80 % 1010,5 hPa 0,0 l/m 23,1 km/h (4 Bft) W-SW 250 0 min 0 W/m -5,2 C -13,9 C 23,1 km/h (4 Bft)
04.12.2010 11:00 -2,2 C 80 % 1010,5 hPa 0,0 l/m 28,8 km/h (5 Bft) W-SW 240 0 min 0 W/m -5,2 C -16,1 C 28,8 km/h (5 Bft)
04.12.2010 11:04 -2,2 C 80 % 1010,5 hPa 0,0 l/m 28,9 km/h (5 Bft) W-SW 240 0 min 0 W/m -5,2 C -16,1 C 28,9 km/h (5 Bft)
04.12.2010 11:09 -2,2 C 79 % 1010,5 hPa 0,0 l/m 25,0 km/h (4 Bft) W-SW 240 0 min 0 W/m -5,3 C -14,7 C 25,0 km/h (4 Bft)
04.12.2010 11:14 -2,4 C 79 % 1010,5 hPa 0,0 l/m 30,5 km/h (5 Bft) W-SW 240 0 min 0 W/m -5,5 C -16,9 C 30,5 km/h (5 Bft)
04.12.2010 11:19 -2,4 C 80 % 1010,5 hPa 0,0 l/m 32,9 km/h (5 Bft) W-SW 240 0 min 0 W/m -5,4 C -17,7 C 32,9 km/h (5 Bft)
04.12.2010 11:25 -2,4 C 80 % 1010,5 hPa 0,0 l/m 34,0 km/h (5 Bft) W-SW 250 0 min 0 W/m -5,4 C -18,0 C 34,0 km/h (5 Bft)
04.12.2010 11:30 -2,3 C 80 % 1010,5 hPa 0,0 l/m 26,2 km/h (4 Bft) W-SW 250 0 min 0 W/m -5,3 C -15,3 C 26,2 km/h (4 Bft)
04.12.2010 11:34 -2,3 C 80 % 1010,5 hPa 0,0 l/m 32,5 km/h (5 Bft) W-SW 240 0 min 0 W/m -5,3 C -17,4 C 32,5 km/h (5 Bft)
04.12.2010 11:39 -2,3 C 80 % 1010,5 hPa 0,0 l/m 23,3 km/h (4 Bft) SW 235 0 min 0 W/m -5,3 C -14,1 C 23,3 km/h (4 Bft)
04.12.2010 11:44 -2,0 C 80 % 1010,5 hPa 0,0 l/m 26,2 km/h (4 Bft) W-SW 245 0 min 0 W/m -5,0 C -14,9 C 26,2 km/h (4 Bft)
04.12.2010 11:49 -2,0 C 80 % 1010,5 hPa 0,0 l/m 26,7 km/h (4 Bft) W-SW 240 0 min 0 W/m -5,0 C -15,1 C 26,7 km/h (4 Bft)
04.12.2010 11:54 -2,0 C 79 % 1010,5 hPa 0,0 l/m 23,4 km/h (4 Bft) W-SW 255 0 min 0 W/m -5,1 C -13,8 C 23,4 km/h (4 Bft)
04.12.2010 12:00 -2,0 C 79 % 1010,5 hPa 0,0 l/m 26,1 km/h (4 Bft) SW 230 0 min 0 W/m -5,1 C -14,9 C 26,1 km/h (4 Bft)
04.12.2010 12:04 -2,0 C 79 % 1010,5 hPa 0,0 l/m 26,2 km/h (4 Bft) SW 230 0 min 0 W/m -5,1 C -14,9 C 26,2 km/h (4 Bft)
04.12.2010 12:09 -1,9 C 79 % 1009,5 hPa 0,0 l/m 26,2 km/h (4 Bft) SW 235 0 min 0 W/m -5,0 C -14,8 C 26,2 km/h (4 Bft)
04.12.2010 12:14 -1,9 C 78 % 1009,5 hPa 0,0 l/m 25,5 km/h (4 Bft) W-SW 245 0 min 0 W/m -5,2 C -14,5 C 25,5 km/h (4 Bft)
04.12.2010 12:19 -1,8 C 79 % 1009,5 hPa 0,0 l/m 21,6 km/h (4 Bft) W-SW 240 0 min 0 W/m -4,9 C -12,7 C 21,6 km/h (4 Bft)
04.12.2010 12:25 -1,8 C 78 % 1009,5 hPa 0,0 l/m 29,1 km/h (5 Bft) SW 225 0 min 0 W/m -5,1 C -15,6 C 29,1 km/h (5 Bft)
04.12.2010 12:30 -1,7 C 78 % 1009,5 hPa 0,0 l/m 23,7 km/h (4 Bft) W-SW 240 0 min 0 W/m -5,0 C -13,5 C 23,7 km/h (4 Bft)
04.12.2010 12:34 -1,6 C 77 % 1009,5 hPa 0,0 l/m 24,0 km/h (4 Bft) W-SW 240 0 min 0 W/m -5,1 C -13,5 C 24,0 km/h (4 Bft)
04.12.2010 12:39 -1,6 C 78 % 1009,5 hPa 0,0 l/m 21,0 km/h (4 Bft) SW 230 0 min 0 W/m -4,9 C -12,2 C 21,0 km/h (4 Bft)
04.12.2010 12:44 -1,5 C 77 % 1009,5 hPa 0,0 l/m 30,6 km/h (5 Bft) SW 230 0 min 0 W/m -5,0 C -15,7 C 30,6 km/h (5 Bft)
04.12.2010 12:49 -1,3 C 77 % 1009,5 hPa 0,0 l/m 20,8 km/h (4 Bft) SW 230 0 min 0 W/m -4,8 C -11,7 C 20,8 km/h (4 Bft)
04.12.2010 12:54 -1,2 C 77 % 1009,5 hPa 0,0 l/m 25,0 km/h (4 Bft) SW 235 0 min 0 W/m -4,7 C -13,3 C 25,0 km/h (4 Bft)
04.12.2010 13:00 -1,2 C 77 % 1009,5 hPa 0,0 l/m 27,0 km/h (5 Bft) SW 225 0 min 0 W/m -4,7 C -14,1 C 27,0 km/h (5 Bft)
04.12.2010 13:04 -1,1 C 76 % 1009,5 hPa 0,0 l/m 26,3 km/h (4 Bft) SW 225 0 min 0 W/m -4,8 C -13,7 C 26,3 km/h (4 Bft)
04.12.2010 13:09 -1,1 C 76 % 1009,5 hPa 0,0 l/m 22,5 km/h (4 Bft) SW 235 0 min 0 W/m -4,8 C -12,2 C 22,5 km/h (4 Bft)
04.12.2010 13:14 -1,0 C 75 % 1009,5 hPa 0,0 l/m 15,1 km/h (3 Bft) SW 230 0 min 0 W/m -4,9 C -8,3 C 15,1 km/h (3 Bft)
04.12.2010 13:19 -1,1 C 76 % 1009,5 hPa 0,0 l/m 29,5 km/h (5 Bft) SW 225 0 min 0 W/m -4,8 C -14,8 C 29,5 km/h (5 Bft)
04.12.2010 13:25 -1,3 C 75 % 1009,5 hPa 0,0 l/m 28,1 km/h (5 Bft) S-SW 210 0 min 0 W/m -5,1 C -14,6 C 28,1 km/h (5 Bft)
04.12.2010 13:30 -1,3 C 75 % 1009,5 hPa 0,0 l/m 27,9 km/h (5 Bft) S-SW 210 0 min 0 W/m -5,1 C -14,5 C 27,9 km/h (5 Bft)
04.12.2010 13:34 -1,4 C 76 % 1009,5 hPa 0,0 l/m 30,7 km/h (5 Bft) SW 220 0 min 0 W/m -5,1 C -15,6 C 30,7 km/h (5 Bft)
04.12.2010 13:39 -1,4 C 75 % 1009,5 hPa 0,0 l/m 24,6 km/h (4 Bft) SW 215 0 min 0 W/m -5,2 C -13,5 C 24,6 km/h (4 Bft)
04.12.2010 13:44 -1,4 C 75 % 1009,5 hPa 0,0 l/m 18,5 km/h (3 Bft) SW 220 0 min 0 W/m -5,2 C -10,7 C 18,5 km/h (3 Bft)
04.12.2010 13:49 -1,4 C 76 % 1009,5 hPa 0,0 l/m 29,2 km/h (5 Bft) S-SW 210 0 min 0 W/m -5,1 C -15,1 C 29,2 km/h (5 Bft)
04.12.2010 13:54 -1,3 C 76 % 1009,5 hPa 0,0 l/m 32,1 km/h (5 Bft) SW 225 0 min 0 W/m -5,0 C -15,9 C 32,1 km/h (5 Bft)
04.12.2010 14:00 -1,3 C 75 % 1009,5 hPa 0,0 l/m 23,1 km/h (4 Bft) SW 230 0 min 0 W/m -5,1 C -12,7 C 23,1 km/h (4 Bft)
04.12.2010 14:04 -1,4 C 76 % 1009,5 hPa 0,0 l/m 22,6 km/h (4 Bft) SW 220 0 min 0 W/m -5,1 C -12,6 C 22,6 km/h (4 Bft)
04.12.2010 14:09 -1,4 C 75 % 1009,5 hPa 0,0 l/m 22,6 km/h (4 Bft) SW 220 0 min 0 W/m -5,2 C -12,6 C 22,6 km/h (4 Bft)
04.12.2010 14:14 -1,4 C 76 % 1009,5 hPa 0,0 l/m 27,0 km/h (5 Bft) SW 220 0 min 0 W/m -5,1 C -14,4 C 27,0 km/h (5 Bft)
04.12.2010 14:19 -1,4 C 76 % 1009,5 hPa 0,0 l/m 21,1 km/h (4 Bft) SW 215 0 min 0 W/m -5,1 C -12,0 C 21,1 km/h (4 Bft)
04.12.2010 14:25 -1,4 C 76 % 1008,5 hPa 0,0 l/m 25,7 km/h (4 Bft) SW 215 0 min 0 W/m -5,1 C -13,9 C 25,7 km/h (4 Bft)
04.12.2010 14:29 -1,4 C 75 % 1008,5 hPa 0,0 l/m 22,7 km/h (4 Bft) S-SW 205 0 min 0 W/m -5,2 C -12,7 C 22,7 km/h (4 Bft)
04.12.2010 14:34 -1,4 C 75 % 1008,5 hPa 0,0 l/m 17,8 km/h (3 Bft) SW 215 0 min 0 W/m -5,2 C -10,3 C 17,8 km/h (3 Bft)
04.12.2010 14:39 -1,4 C 75 % 1008,5 hPa 0,0 l/m 20,8 km/h (4 Bft) S-SW 210 0 min 0 W/m -5,2 C -11,8 C 20,8 km/h (4 Bft)
04.12.2010 14:44 -1,4 C 75 % 1008,5 hPa 0,0 l/m 24,6 km/h (4 Bft) S-SW 200 0 min 0 W/m -5,2 C -13,5 C 24,6 km/h (4 Bft)
04.12.2010 14:49 -1,4 C 75 % 1008,5 hPa 0,0 l/m 23,7 km/h (4 Bft) SW 220 0 min 0 W/m -5,2 C -13,1 C 23,7 km/h (4 Bft)
04.12.2010 14:54 -1,5 C 75 % 1008,5 hPa 0,0 l/m 30,2 km/h (5 Bft) SW 220 0 min 0 W/m -5,3 C -15,6 C 30,2 km/h (5 Bft)
04.12.2010 15:00 -1,5 C 75 % 1008,5 hPa 0,0 l/m 18,5 km/h (3 Bft) SW 230 0 min 0 W/m -5,3 C -10,8 C 18,5 km/h (3 Bft)
04.12.2010 15:04 -1,5 C 75 % 1008,5 hPa 0,0 l/m 25,7 km/h (4 Bft) SW 230 0 min 0 W/m -5,3 C -14,0 C 25,7 km/h (4 Bft)
04.12.2010 15:09 -1,6 C 74 % 1008,5 hPa 0,0 l/m 24,8 km/h (4 Bft) SW 230 0 min 0 W/m -5,6 C -13,8 C 24,8 km/h (4 Bft)
04.12.2010 15:14 -1,6 C 75 % 1008,5 hPa 0,0 l/m 26,6 km/h (4 Bft) SW 215 0 min 0 W/m -5,4 C -14,5 C 26,6 km/h (4 Bft)
04.12.2010 15:19 -1,7 C 74 % 1008,5 hPa 0,0 l/m 28,0 km/h (5 Bft) SW 230 0 min 0 W/m -5,7 C -15,1 C 28,0 km/h (5 Bft)
04.12.2010 15:25 -1,7 C 75 % 1008,5 hPa 0,0 l/m 26,7 km/h (4 Bft) S-SW 210 0 min 0 W/m -5,5 C -14,7 C 26,7 km/h (4 Bft)
04.12.2010 15:29 -1,7 C 75 % 1008,5 hPa 0,0 l/m 21,5 km/h (4 Bft) SW 225 0 min 0 W/m -5,5 C -12,5 C 21,5 km/h (4 Bft)
04.12.2010 15:34 -1,7 C 76 % 1008,5 hPa 0,0 l/m 22,1 km/h (4 Bft) SW 215 0 min 0 W/m -5,4 C -12,8 C 22,1 km/h (4 Bft)
04.12.2010 15:39 -1,8 C 77 % 1008,5 hPa 0,0 l/m 28,8 km/h (5 Bft) SW 225 0 min 0 W/m -5,3 C -15,5 C 28,8 km/h (5 Bft)
04.12.2010 15:44 -1,8 C 78 % 1008,5 hPa 0,0 l/m 24,1 km/h (4 Bft) SW 215 0 min 0 W/m -5,1 C -13,8 C 24,1 km/h (4 Bft)
04.12.2010 15:49 -1,9 C 80 % 1008,5 hPa 0,0 l/m 31,6 km/h (5 Bft) SW 215 0 min 0 W/m -4,9 C -16,6 C 31,6 km/h (5 Bft)
04.12.2010 15:54 -1,9 C 80 % 1008,5 hPa 0,0 l/m 27,0 km/h (5 Bft) S-SW 200 0 min 0 W/m -4,9 C -15,1 C 27,0 km/h (5 Bft)
04.12.2010 16:00 -2,1 C 81 % 1008,5 hPa 0,0 l/m 22,6 km/h (4 Bft) S-SW 200 0 min 0 W/m -4,9 C -13,6 C 22,6 km/h (4 Bft)
04.12.2010 16:04 -2,1 C 82 % 1008,5 hPa 0,0 l/m 22,7 km/h (4 Bft) S-SW 205 0 min 0 W/m -4,7 C -13,6 C 22,7 km/h (4 Bft)
04.12.2010 16:09 -2,2 C 83 % 1008,5 hPa 0,0 l/m 25,7 km/h (4 Bft) SW 215 0 min 0 W/m -4,7 C -15,0 C 25,7 km/h (4 Bft)
04.12.2010 16:14 -2,2 C 83 % 1008,5 hPa 0,0 l/m 19,0 km/h (3 Bft) S-SW 205 0 min 0 W/m -4,7 C -12,0 C 19,0 km/h (3 Bft)
04.12.2010 16:20 -2,2 C 83 % 1008,5 hPa 0,0 l/m 23,0 km/h (4 Bft) SW 215 0 min 0 W/m -4,7 C -13,9 C 23,0 km/h (4 Bft)
04.12.2010 16:25 -2,2 C 84 % 1008,5 hPa 0,0 l/m 19,0 km/h (3 Bft) S-SW 200 0 min 0 W/m -4,5 C -12,0 C 19,0 km/h (3 Bft)
04.12.2010 16:29 -2,2 C 84 % 1008,5 hPa 0,0 l/m 17,7 km/h (3 Bft) S-SW 210 0 min 0 W/m -4,5 C -11,3 C 17,7 km/h (3 Bft)
04.12.2010 16:34 -2,3 C 84 % 1008,5 hPa 0,0 l/m 19,8 km/h (3 Bft) S-SW 200 0 min 0 W/m -4,6 C -12,5 C 19,8 km/h (3 Bft)
04.12.2010 16:39 -2,3 C 84 % 1008,5 hPa 0,0 l/m 24,4 km/h (4 Bft) S-SW 195 0 min 0 W/m -4,6 C -14,6 C 24,4 km/h (4 Bft)
04.12.2010 16:44 -2,3 C 84 % 1008,5 hPa 0,0 l/m 24,5 km/h (4 Bft) S-SW 205 0 min 0 W/m -4,6 C -14,6 C 24,5 km/h (4 Bft)
04.12.2010 16:49 -2,3 C 84 % 1008,5 hPa 0,0 l/m 26,6 km/h (4 Bft) S-SW 210 0 min 0 W/m -4,6 C -15,5 C 26,6 km/h (4 Bft)
04.12.2010 16:55 -2,3 C 84 % 1008,5 hPa 0,0 l/m 24,1 km/h (4 Bft) S-SW 205 0 min 0 W/m -4,6 C -14,5 C 24,1 km/h (4 Bft)
04.12.2010 17:00 -2,2 C 84 % 1008,5 hPa 0,0 l/m 22,5 km/h (4 Bft) SW 215 0 min 0 W/m -4,5 C -13,6 C 22,5 km/h (4 Bft)
04.12.2010 17:04 -2,2 C 84 % 1008,5 hPa 0,0 l/m 23,3 km/h (4 Bft) SW 220 0 min 0 W/m -4,5 C -14,0 C 23,3 km/h (4 Bft)
04.12.2010 17:09 -2,2 C 84 % 1008,5 hPa 0,0 l/m 25,0 km/h (4 Bft) SW 225 0 min 0 W/m -4,5 C -14,7 C 25,0 km/h (4 Bft)
04.12.2010 17:14 -2,2 C 84 % 1008,5 hPa 0,0 l/m 26,3 km/h (4 Bft) S-SW 205 0 min 0 W/m -4,5 C -15,2 C 26,3 km/h (4 Bft)
04.12.2010 17:20 -2,1 C 84 % 1008,5 hPa 0,0 l/m 20,5 km/h (4 Bft) SW 220 0 min 0 W/m -4,4 C -12,6 C 20,5 km/h (4 Bft)
04.12.2010 17:24 -2,1 C 84 % 1008,5 hPa 0,0 l/m 23,8 km/h (4 Bft) S-SW 200 0 min 0 W/m -4,4 C -14,1 C 23,8 km/h (4 Bft)
04.12.2010 17:29 -2,1 C 85 % 1008,5 hPa 0,0 l/m 27,1 km/h (5 Bft) S-SW 205 0 min 0 W/m -4,3 C -15,4 C 27,1 km/h (5 Bft)
04.12.2010 17:34 -2,1 C 85 % 1008,5 hPa 0,0 l/m 28,7 km/h (5 Bft) S-SW 200 0 min 0 W/m -4,3 C -15,9 C 28,7 km/h (5 Bft)
04.12.2010 17:39 -2,1 C 85 % 1008,5 hPa 0,0 l/m 23,0 km/h (4 Bft) SW 220 0 min 0 W/m -4,3 C -13,7 C 23,0 km/h (4 Bft)
04.12.2010 17:44 -2,1 C 86 % 1007,5 hPa 0,0 l/m 23,0 km/h (4 Bft) SW 220 0 min 0 W/m -4,1 C -13,7 C 23,0 km/h (4 Bft)
04.12.2010 17:50 -2,1 C 86 % 1007,5 hPa 0,0 l/m 19,8 km/h (3 Bft) SW 220 0 min 0 W/m -4,1 C -12,2 C 19,8 km/h (3 Bft)
04.12.2010 17:55 -2,0 C 86 % 1007,5 hPa 0,0 l/m 23,7 km/h (4 Bft) SW 220 0 min 0 W/m -4,0 C -13,9 C 23,7 km/h (4 Bft)
04.12.2010 17:59 -2,1 C 86 % 1007,5 hPa 0,0 l/m 22,0 km/h (4 Bft) S-SW 205 0 min 0 W/m -4,1 C -13,3 C 22,0 km/h (4 Bft)
04.12.2010 18:04 -2,1 C 86 % 1007,5 hPa 0,0 l/m 24,1 km/h (4 Bft) SW 215 0 min 0 W/m -4,1 C -14,2 C 24,1 km/h (4 Bft)
04.12.2010 18:10 -2,0 C 86 % 1007,5 hPa 0,0 l/m 21,0 km/h (4 Bft) SW 215 0 min 0 W/m -4,0 C -12,7 C 21,0 km/h (4 Bft)
04.12.2010 18:15 -2,0 C 86 % 1008,5 hPa 0,0 l/m 16,4 km/h (3 Bft) SW 220 0 min 0 W/m -4,0 C -10,3 C 16,4 km/h (3 Bft)
04.12.2010 18:19 -2,0 C 86 % 1007,5 hPa 0,0 l/m 22,4 km/h (4 Bft) SW 220 0 min 0 W/m -4,0 C -13,3 C 22,4 km/h (4 Bft)
04.12.2010 18:24 -2,0 C 86 % 1007,5 hPa 0,0 l/m 24,5 km/h (4 Bft) S-SW 205 0 min 0 W/m -4,0 C -14,2 C 24,5 km/h (4 Bft)
04.12.2010 18:29 -2,0 C 86 % 1007,5 hPa 0,0 l/m 18,3 km/h (3 Bft) SW 220 0 min 0 W/m -4,0 C -11,3 C 18,3 km/h (3 Bft)
04.12.2010 18:34 -1,9 C 86 % 1007,5 hPa 0,0 l/m 21,3 km/h (4 Bft) S 185 0 min 0 W/m -3,9 C -12,7 C 21,3 km/h (4 Bft)
04.12.2010 18:39 -1,9 C 87 % 1007,5 hPa 0,0 l/m 32,5 km/h (5 Bft) SW 220 0 min 0 W/m -3,8 C -16,8 C 32,5 km/h (5 Bft)
04.12.2010 18:45 -1,8 C 87 % 1007,5 hPa 0,0 l/m 23,4 km/h (4 Bft) SW 220 0 min 0 W/m -3,7 C -13,5 C 23,4 km/h (4 Bft)
04.12.2010 18:49 -1,8 C 87 % 1007,5 hPa 0,0 l/m 22,8 km/h (4 Bft) SW 220 0 min 0 W/m -3,7 C -13,2 C 22,8 km/h (4 Bft)
04.12.2010 18:54 -1,8 C 87 % 1007,5 hPa 0,0 l/m 21,0 km/h (4 Bft) SW 225 0 min 0 W/m -3,7 C -12,4 C 21,0 km/h (4 Bft)
04.12.2010 18:59 -1,8 C 87 % 1007,5 hPa 0,0 l/m 23,8 km/h (4 Bft) SW 235 0 min 0 W/m -3,7 C -13,7 C 23,8 km/h (4 Bft)
04.12.2010 19:05 -1,8 C 87 % 1007,5 hPa 0,0 l/m 23,8 km/h (4 Bft) SW 235 0 min 0 W/m -3,7 C -13,7 C 23,8 km/h (4 Bft)
04.12.2010 19:09 -1,8 C 88 % 1007,5 hPa 0,0 l/m 17,0 km/h (3 Bft) S-SW 210 0 min 0 W/m -3,5 C -10,4 C 17,0 km/h (3 Bft)
04.12.2010 19:14 -1,8 C 88 % 1007,5 hPa 0,0 l/m 23,1 km/h (4 Bft) SW 225 0 min 0 W/m -3,5 C -13,4 C 23,1 km/h (4 Bft)
04.12.2010 19:19 -1,8 C 88 % 1007,5 hPa 0,0 l/m 25,4 km/h (4 Bft) SW 235 0 min 0 W/m -3,5 C -14,3 C 25,4 km/h (4 Bft)
04.12.2010 19:24 -1,7 C 88 % 1007,5 hPa 0,0 l/m 27,1 km/h (5 Bft) SW 215 0 min 0 W/m -3,4 C -14,8 C 27,1 km/h (5 Bft)
04.12.2010 19:29 -1,6 C 88 % 1007,5 hPa 0,0 l/m 22,1 km/h (4 Bft) SW 225 0 min 0 W/m -3,3 C -12,7 C 22,1 km/h (4 Bft)
04.12.2010 19:35 -1,7 C 88 % 1007,5 hPa 0,0 l/m 23,6 km/h (4 Bft) W-SW 240 0 min 0 W/m -3,4 C -13,5 C 23,6 km/h (4 Bft)
04.12.2010 19:40 -1,6 C 88 % 1007,5 hPa 0,0 l/m 23,6 km/h (4 Bft) SW 230 0 min 0 W/m -3,3 C -13,3 C 23,6 km/h (4 Bft)
04.12.2010 19:44 -1,6 C 88 % 1007,5 hPa 0,0 l/m 26,4 km/h (4 Bft) SW 235 0 min 0 W/m -3,3 C -14,4 C 26,4 km/h (4 Bft)
04.12.2010 19:49 -1,6 C 88 % 1007,5 hPa 0,0 l/m 25,1 km/h (4 Bft) W-SW 245 0 min 0 W/m -3,3 C -13,9 C 25,1 km/h (4 Bft)
04.12.2010 19:54 -1,5 C 89 % 1007,5 hPa 0,0 l/m 26,2 km/h (4 Bft) W-SW 245 0 min 0 W/m -3,1 C -14,2 C 26,2 km/h (4 Bft)
04.12.2010 19:59 -1,5 C 89 % 1007,5 hPa 0,0 l/m 30,1 km/h (5 Bft) W-SW 240 0 min 0 W/m -3,1 C -15,5 C 30,1 km/h (5 Bft)
04.12.2010 20:04 -1,5 C 89 % 1007,5 hPa 0,0 l/m 28,4 km/h (5 Bft) W-SW 240 0 min 0 W/m -3,1 C -15,0 C 28,4 km/h (5 Bft)
04.12.2010 20:09 -1,5 C 89 % 1007,5 hPa 0,0 l/m 35,5 km/h (5 Bft) W-SW 250 0 min 0 W/m -3,1 C -17,1 C 35,5 km/h (5 Bft)
04.12.2010 20:14 -1,4 C 89 % 1007,5 hPa 0,0 l/m 26,8 km/h (4 Bft) W-SW 250 0 min 0 W/m -3,0 C -14,3 C 26,8 km/h (4 Bft)
04.12.2010 20:19 -1,4 C 89 % 1006,5 hPa 0,0 l/m 28,0 km/h (5 Bft) SW 235 0 min 0 W/m -3,0 C -14,7 C 28,0 km/h (5 Bft)
04.12.2010 20:25 -1,4 C 89 % 1006,5 hPa 0,0 l/m 32,6 km/h (5 Bft) SW 235 0 min 0 W/m -3,0 C -16,2 C 32,6 km/h (5 Bft)
04.12.2010 20:30 -1,3 C 89 % 1006,5 hPa 0,0 l/m 28,6 km/h (5 Bft) W-SW 250 0 min 0 W/m -2,9 C -14,8 C 28,6 km/h (5 Bft)
04.12.2010 20:34 -1,3 C 89 % 1006,5 hPa 0,0 l/m 31,3 km/h (5 Bft) SW 235 0 min 0 W/m -2,9 C -15,6 C 31,3 km/h (5 Bft)
04.12.2010 20:39 -1,2 C 89 % 1006,5 hPa 0,0 l/m 32,3 km/h (5 Bft) W-SW 240 0 min 0 W/m -2,8 C -15,8 C 32,3 km/h (5 Bft)
04.12.2010 20:44 -1,2 C 89 % 1006,5 hPa 0,0 l/m 24,2 km/h (4 Bft) SW 235 0 min 0 W/m -2,8 C -13,0 C 24,2 km/h (4 Bft)
04.12.2010 20:49 -1,1 C 89 % 1006,5 hPa 0,0 l/m 21,6 km/h (4 Bft) W-SW 240 0 min 0 W/m -2,7 C -11,8 C 21,6 km/h (4 Bft)
04.12.2010 20:55 -1,1 C 89 % 1006,5 hPa 0,0 l/m 28,5 km/h (5 Bft) W-SW 250 0 min 0 W/m -2,7 C -14,5 C 28,5 km/h (5 Bft)
04.12.2010 21:00 -1,1 C 89 % 1006,5 hPa 0,0 l/m 24,0 km/h (4 Bft) SW 235 0 min 0 W/m -2,7 C -12,8 C 24,0 km/h (4 Bft)
04.12.2010 21:04 -1,0 C 89 % 1006,5 hPa 0,0 l/m 28,3 km/h (5 Bft) SW 230 0 min 0 W/m -2,6 C -14,3 C 28,3 km/h (5 Bft)
04.12.2010 21:09 -1,0 C 89 % 1006,5 hPa 0,0 l/m 24,5 km/h (4 Bft) SW 225 0 min 0 W/m -2,6 C -12,9 C 24,5 km/h (4 Bft)
04.12.2010 21:14 -1,0 C 89 % 1006,5 hPa 0,0 l/m 22,5 km/h (4 Bft) W-SW 240 0 min 0 W/m -2,6 C -12,1 C 22,5 km/h (4 Bft)
04.12.2010 21:20 -1,0 C 89 % 1006,5 hPa 0,0 l/m 34,0 km/h (5 Bft) W-SW 240 0 min 0 W/m -2,6 C -16,0 C 34,0 km/h (5 Bft)
04.12.2010 21:24 -1,0 C 89 % 1006,5 hPa 0,0 l/m 35,4 km/h (5 Bft) W-SW 245 0 min 0 W/m -2,6 C -16,3 C 35,4 km/h (5 Bft)
04.12.2010 21:29 -1,0 C 89 % 1006,5 hPa 0,0 l/m 24,6 km/h (4 Bft) W-SW 245 0 min 0 W/m -2,6 C -12,9 C 24,6 km/h (4 Bft)
04.12.2010 21:34 -0,9 C 89 % 1006,5 hPa 0,0 l/m 19,5 km/h (3 Bft) W-SW 245 0 min 0 W/m -2,5 C -10,6 C 19,5 km/h (3 Bft)
04.12.2010 21:39 -0,9 C 89 % 1006,5 hPa 0,0 l/m 25,7 km/h (4 Bft) W-SW 240 0 min 0 W/m -2,5 C -13,2 C 25,7 km/h (4 Bft)
04.12.2010 21:44 -0,9 C 89 % 1006,5 hPa 0,0 l/m 20,1 km/h (4 Bft) SW 235 0 min 0 W/m -2,5 C -10,8 C 20,1 km/h (4 Bft)
04.12.2010 21:50 -0,9 C 88 % 1006,5 hPa 0,0 l/m 26,8 km/h (4 Bft) SW 220 0 min 0 W/m -2,6 C -13,6 C 26,8 km/h (4 Bft)
04.12.2010 21:54 -0,8 C 88 % 1006,5 hPa 0,0 l/m 34,1 km/h (5 Bft) W-SW 240 0 min 0 W/m -2,5 C -15,7 C 34,1 km/h (5 Bft)
04.12.2010 21:59 -0,8 C 88 % 1006,5 hPa 0,0 l/m 27,1 km/h (5 Bft) W-SW 245 0 min 0 W/m -2,5 C -13,6 C 27,1 km/h (5 Bft)
04.12.2010 22:04 -0,8 C 88 % 1006,5 hPa 0,0 l/m 28,3 km/h (5 Bft) W-SW 250 0 min 0 W/m -2,5 C -14,0 C 28,3 km/h (5 Bft)
04.12.2010 22:10 -0,7 C 88 % 1006,5 hPa 0,0 l/m 22,7 km/h (4 Bft) W-SW 240 0 min 0 W/m -2,4 C -11,7 C 22,7 km/h (4 Bft)
04.12.2010 22:14 -0,6 C 88 % 1006,5 hPa 0,0 l/m 31,5 km/h (5 Bft) SW 230 0 min 0 W/m -2,3 C -14,7 C 31,5 km/h (5 Bft)
04.12.2010 22:19 -0,7 C 88 % 1006,5 hPa 0,0 l/m 28,3 km/h (5 Bft) SW 230 0 min 0 W/m -2,4 C -13,8 C 28,3 km/h (5 Bft)
04.12.2010 22:24 -0,6 C 88 % 1006,5 hPa 0,0 l/m 29,4 km/h (5 Bft) W-SW 240 0 min 0 W/m -2,3 C -14,1 C 29,4 km/h (5 Bft)
04.12.2010 22:29 -0,7 C 88 % 1006,5 hPa 0,0 l/m 26,3 km/h (4 Bft) SW 230 0 min 0 W/m -2,4 C -13,1 C 26,3 km/h (4 Bft)
04.12.2010 22:34 -0,7 C 88 % 1006,5 hPa 0,0 l/m 20,9 km/h (4 Bft) W-SW 240 0 min 0 W/m -2,4 C -11,0 C 20,9 km/h (4 Bft)
04.12.2010 22:40 -0,6 C 88 % 1006,5 hPa 0,0 l/m 24,3 km/h (4 Bft) W-SW 245 0 min 0 W/m -2,3 C -12,3 C 24,3 km/h (4 Bft)
04.12.2010 22:45 -0,6 C 88 % 1006,5 hPa 0,0 l/m 29,1 km/h (5 Bft) SW 230 0 min 0 W/m -2,3 C -14,0 C 29,1 km/h (5 Bft)
04.12.2010 22:49 -0,6 C 88 % 1005,5 hPa 0,0 l/m 25,6 km/h (4 Bft) SW 235 0 min 0 W/m -2,3 C -12,8 C 25,6 km/h (4 Bft)
04.12.2010 22:54 -0,6 C 88 % 1005,5 hPa 0,0 l/m 27,7 km/h (5 Bft) W-SW 250 0 min 0 W/m -2,3 C -13,5 C 27,7 km/h (5 Bft)
04.12.2010 22:59 -0,6 C 88 % 1005,5 hPa 0,0 l/m 26,6 km/h (4 Bft) W-SW 245 0 min 0 W/m -2,3 C -13,1 C 26,6 km/h (4 Bft)
04.12.2010 23:05 -0,6 C 88 % 1005,5 hPa 0,0 l/m 25,9 km/h (4 Bft) SW 235 0 min 0 W/m -2,3 C -12,9 C 25,9 km/h (4 Bft)
04.12.2010 23:09 -0,6 C 88 % 1005,5 hPa 0,0 l/m 26,8 km/h (4 Bft) W-SW 240 0 min 0 W/m -2,3 C -13,2 C 26,8 km/h (4 Bft)
04.12.2010 23:14 -0,6 C 88 % 1005,5 hPa 0,0 l/m 25,2 km/h (4 Bft) W-SW 240 0 min 0 W/m -2,3 C -12,6 C 25,2 km/h (4 Bft)
04.12.2010 23:19 -0,6 C 88 % 1005,5 hPa 0,0 l/m 23,3 km/h (4 Bft) W-SW 240 0 min 0 W/m -2,3 C -11,9 C 23,3 km/h (4 Bft)
04.12.2010 23:24 -0,6 C 88 % 1005,5 hPa 0,0 l/m 24,8 km/h (4 Bft) SW 235 0 min 0 W/m -2,3 C -12,5 C 24,8 km/h (4 Bft)
04.12.2010 23:30 -0,5 C 88 % 1005,5 hPa 0,0 l/m 24,8 km/h (4 Bft) SW 235 0 min 0 W/m -2,2 C -12,3 C 24,8 km/h (4 Bft)
04.12.2010 23:34 -0,5 C 87 % 1005,5 hPa 0,0 l/m 25,2 km/h (4 Bft) SW 235 0 min 0 W/m -2,4 C -12,5 C 25,2 km/h (4 Bft)
04.12.2010 23:39 -0,5 C 87 % 1005,5 hPa 0,0 l/m 24,8 km/h (4 Bft) W-SW 240 0 min 0 W/m -2,4 C -12,3 C 24,8 km/h (4 Bft)
04.12.2010 23:44 -0,5 C 87 % 1005,5 hPa 0,0 l/m 17,1 km/h (3 Bft) SW 220 0 min 0 W/m -2,4 C -8,8 C 17,1 km/h (3 Bft)
04.12.2010 23:49 -0,5 C 87 % 1005,5 hPa 0,0 l/m 17,8 km/h (3 Bft) SW 235 0 min 0 W/m -2,4 C -9,2 C 17,8 km/h (3 Bft)
04.12.2010 23:55 -0,5 C 87 % 1005,5 hPa 0,0 l/m 20,2 km/h (4 Bft) SW 225 0 min 0 W/m -2,4 C -10,4 C 20,2 km/h (4 Bft)
_ Min-Zeit 01:24 15:09 22:49 - 13:14 - - - - 01:24 00:59 13:14
Minimum _ -4,0 C 74 % 1005,5 hPa - 15,1 km/h (3 Bft) - - - - -6,1 C -18,4 C 15,1 km/h (3 Bft)
_ Max-Zeit 23:30 05:54 07:04 00:05 20:09 - - 00:05 00:05 23:30 13:14 20:09
Maximum _ -0,5 C 93 % 1010,5 hPa 0,0 l/m 35,5 km/h
W-SW (5 Bft)
- - 0 min 0 W/m -2,2 C -8,3 C 35,5 km/h
W-SW (5 Bft)
Durchschnitt _ -2,2 C 85 % 1008,8 hPa #0,0 l/m 24,7 km/h (4 Bft) W-SW - #0 min. 0 W/m -4,4 C -14,4 C 24,7 km/h (4 Bft)
copyright by Holger Just